Time,TemperatureF,DewpointF,PressureIn,WindDirection,WindDirectionDegrees,WindSpeedMPH,WindSpeedGustMPH,Humidity,HourlyPrecipIn,Conditions,Clouds,dailyrainin,SoftwareType,DateUTC
2013-09-15 00:03:00,56.3,53.7,29.00,NE,45,0.0,0.0,91,0.04,RA,,0.00,WeatherDisplay:10.37,2013-09-15 05:03:00,
2013-09-15 00:08:00,56.3,53.7,29.00,NE,45,0.0,0.0,91,0.04,RA,,0.00,WeatherDisplay:10.37,2013-09-15 05:08:00,
2013-09-15 00:13:00,56.3,53.7,29.00,NE,45,0.0,0.0,91,0.04,CLR,,0.00,WeatherDisplay:10.37,2013-09-15 05:13:00,
2013-09-15 00:18:00,56.3,54.0,29.00,SSE,158,0.0,0.0,92,0.00,CLR,,0.00,WeatherDisplay:10.37,2013-09-15 05:18:00,
2013-09-15 00:23:00,56.3,54.0,29.00,SSE,158,0.0,0.0,92,0.00,CLR,,0.00,WeatherDisplay:10.37,2013-09-15 05:23:00,
2013-09-15 00:28:00,56.3,54.0,29.00,SE,135,0.0,0.0,92,0.00,CLR,,0.00,WeatherDisplay:10.37,2013-09-15 05:28:00,
2013-09-15 00:33:00,56.3,54.0,29.00,ESE,112,0.0,0.0,92,0.00,CLR,,0.00,WeatherDisplay:10.37,2013-09-15 05:33:00,
2013-09-15 00:38:00,56.3,54.0,29.00,ESE,112,0.0,0.0,92,0.00,CLR,,0.00,WeatherDisplay:10.37,2013-09-15 05:38:00,
2013-09-15 00:43:00,56.3,54.0,29.00,ESE,112,1.4,0.0,92,0.00,CLR,,0.00,WeatherDisplay:10.37,2013-09-15 05:43:00,
2013-09-15 00:48:00,56.3,54.0,29.00,ESE,112,1.4,0.0,92,0.00,CLR,,0.00,WeatherDisplay:10.37,2013-09-15 05:48:00,
2013-09-15 00:53:00,56.3,54.3,29.00,ESE,112,1.1,0.0,93,0.04,RA,,0.04,WeatherDisplay:10.37,2013-09-15 05:53:00,
2013-09-15 00:58:00,56.3,54.3,29.00,ESE,112,2.3,2.3,93,0.04,RA,,0.04,WeatherDisplay:10.37,2013-09-15 05:58:00,
2013-09-15 01:03:00,56.3,54.3,29.00,ESE,112,1.1,0.0,93,0.04,CLR,,0.04,WeatherDisplay:10.37,2013-09-15 06:03:00,
2013-09-15 01:08:00,56.3,54.3,29.00,ESE,112,1.6,0.0,93,0.04,CLR,,0.04,WeatherDisplay:10.37,2013-09-15 06:08:00,
2013-09-15 01:13:00,56.3,54.3,29.00,ESE,112,1.1,0.0,93,0.04,CLR,,0.04,WeatherDisplay:10.37,2013-09-15 06:13:00,
2013-09-15 01:18:00,56.1,54.1,29.00,ESE,112,1.1,1.1,93,0.04,CLR,,0.04,WeatherDisplay:10.37,2013-09-15 06:18:00,
2013-09-15 01:23:00,56.1,54.1,29.00,ESE,112,1.1,1.4,93,0.04,CLR,,0.04,WeatherDisplay:10.37,2013-09-15 06:23:00,
2013-09-15 01:28:00,56.1,54.1,28.97,ESE,112,1.1,0.0,93,0.04,CLR,,0.04,WeatherDisplay:10.37,2013-09-15 06:28:00,
2013-09-15 01:33:00,56.1,54.1,28.97,ESE,112,2.3,2.3,93,0.04,CLR,,0.04,WeatherDisplay:10.37,2013-09-15 06:33:00,
2013-09-15 01:38:00,56.1,54.1,28.97,ESE,112,1.4,1.4,93,0.04,CLR,,0.04,WeatherDisplay:10.37,2013-09-15 06:38:00,
2013-09-15 01:43:00,56.1,54.1,28.97,ESE,112,1.1,0.0,93,0.04,CLR,,0.04,WeatherDisplay:10.37,2013-09-15 06:43:00,
2013-09-15 01:48:00,56.1,54.1,28.97,ESE,112,2.3,2.3,93,0.04,CLR,,0.04,WeatherDisplay:10.37,2013-09-15 06:48:00,
2013-09-15 01:53:00,56.1,54.4,28.97,ESE,112,1.4,1.4,94,0.00,CLR,,0.04,WeatherDisplay:10.37,2013-09-15 06:53:00,
2013-09-15 01:58:00,56.1,54.4,28.97,ESE,112,2.3,2.3,94,0.00,CLR,,0.04,WeatherDisplay:10.37,2013-09-15 06:58:00,
2013-09-15 02:03:00,56.1,54.4,28.97,ESE,112,2.0,2.0,94,0.00,CLR,,0.04,WeatherDisplay:10.37,2013-09-15 07:03:00,
2013-09-15 02:08:00,55.9,54.2,28.97,ESE,112,1.1,0.0,94,0.00,CLR,,0.04,WeatherDisplay:10.37,2013-09-15 07:08:00,
2013-09-15 02:13:00,55.9,54.2,28.97,ESE,112,2.3,2.3,94,0.00,CLR,,0.04,WeatherDisplay:10.37,2013-09-15 07:13:00,
2013-09-15 02:18:00,55.9,54.2,28.97,ENE,68,1.1,1.1,94,0.00,CLR,,0.04,WeatherDisplay:10.37,2013-09-15 07:18:00,
2013-09-15 02:23:00,55.9,54.2,28.97,ENE,68,2.3,2.3,94,0.00,CLR,,0.04,WeatherDisplay:10.37,2013-09-15 07:23:00,
2013-09-15 02:28:00,55.9,54.2,28.97,ENE,68,1.1,0.0,94,0.00,CLR,,0.04,WeatherDisplay:10.37,2013-09-15 07:28:00,
2013-09-15 02:33:00,55.9,54.2,28.97,SE,135,2.6,2.6,94,0.00,CLR,,0.04,WeatherDisplay:10.37,2013-09-15 07:33:00,
2013-09-15 02:38:00,55.9,54.2,28.97,SE,135,1.1,1.1,94,0.00,CLR,,0.04,WeatherDisplay:10.37,2013-09-15 07:38:00,
2013-09-15 02:43:00,55.9,54.2,28.97,SE,135,1.1,1.1,94,0.00,CLR,,0.04,WeatherDisplay:10.37,2013-09-15 07:43:00,
2013-09-15 02:48:00,55.9,54.2,28.97,SE,135,1.6,1.6,94,0.00,CLR,,0.04,WeatherDisplay:10.37,2013-09-15 07:48:00,
2013-09-15 02:53:00,55.8,54.1,28.97,SE,135,0.0,0.0,94,0.00,CLR,,0.04,WeatherDisplay:10.37,2013-09-15 07:53:00,
2013-09-15 02:58:00,55.8,54.1,28.97,SE,135,1.4,0.0,94,0.00,CLR,,0.04,WeatherDisplay:10.37,2013-09-15 07:58:00,
2013-09-15 03:03:00,55.8,54.1,28.97,SE,135,1.4,1.4,94,0.00,CLR,,0.04,WeatherDisplay:10.37,2013-09-15 08:03:00,
2013-09-15 03:08:00,55.8,54.1,28.97,SE,135,1.4,1.4,94,0.00,CLR,,0.04,WeatherDisplay:10.37,2013-09-15 08:08:00,
2013-09-15 03:13:00,55.8,54.1,28.97,SE,135,1.4,1.4,94,0.00,CLR,,0.04,WeatherDisplay:10.37,2013-09-15 08:13:00,
2013-09-15 03:18:00,55.8,54.1,28.97,SE,135,2.3,2.3,94,0.00,CLR,,0.04,WeatherDisplay:10.37,2013-09-15 08:18:00,
2013-09-15 03:23:00,55.8,54.1,28.97,SE,135,1.1,1.1,94,0.00,CLR,,0.04,WeatherDisplay:10.37,2013-09-15 08:23:00,
2013-09-15 03:28:00,55.8,54.1,28.97,SE,135,1.6,1.6,94,0.00,CLR,,0.04,WeatherDisplay:10.37,2013-09-15 08:28:00,
2013-09-15 03:33:00,55.8,54.1,28.97,SE,135,1.1,0.0,94,0.00,CLR,,0.04,WeatherDisplay:10.37,2013-09-15 08:33:00,
2013-09-15 03:38:00,55.8,54.1,28.97,SE,135,1.1,0.0,94,0.00,CLR,,0.09,WeatherDisplay:10.37,2013-09-15 08:38:00,
2013-09-15 03:43:00,55.8,54.1,28.97,SE,135,0.0,0.0,94,0.05,RA,,0.09,WeatherDisplay:10.37,2013-09-15 08:43:00,
2013-09-15 03:48:00,55.6,53.9,28.97,SE,135,0.0,0.0,94,0.05,RA,,0.09,WeatherDisplay:10.37,2013-09-15 08:48:00,
2013-09-15 03:53:00,55.6,54.2,28.97,SE,135,0.0,0.0,95,0.05,CLR,,0.09,WeatherDisplay:10.37,2013-09-15 08:53:00,
2013-09-15 03:58:00,55.8,54.3,28.97,SE,135,0.0,0.0,95,0.05,CLR,,0.09,WeatherDisplay:10.37,2013-09-15 08:58:00,
2013-09-15 04:03:00,55.8,54.3,28.97,SE,135,0.0,0.0,95,0.05,CLR,,0.09,WeatherDisplay:10.37,2013-09-15 09:03:00,
2013-09-15 04:08:00,55.8,54.3,28.97,SE,135,1.1,1.1,95,0.09,RA,,0.13,WeatherDisplay:10.37,2013-09-15 09:08:00,
2013-09-15 04:13:00,55.8,54.3,28.97,SE,135,1.1,1.1,95,0.09,RA,,0.13,WeatherDisplay:10.37,2013-09-15 09:13:00,
2013-09-15 04:18:00,55.8,54.3,28.97,SE,135,0.9,0.0,95,0.09,CLR,,0.13,WeatherDisplay:10.37,2013-09-15 09:18:00,
2013-09-15 04:23:00,55.8,54.3,28.97,East,90,0.9,0.0,95,0.09,CLR,,0.13,WeatherDisplay:10.37,2013-09-15 09:23:00,
2013-09-15 04:28:00,55.8,54.3,28.94,East,90,1.1,0.0,95,0.09,CLR,,0.13,WeatherDisplay:10.37,2013-09-15 09:28:00,
2013-09-15 04:33:00,55.8,54.3,28.94,East,90,1.1,0.0,95,0.09,CLR,,0.13,WeatherDisplay:10.37,2013-09-15 09:33:00,
2013-09-15 04:38:00,55.8,54.3,28.94,East,90,0.0,0.0,95,0.09,CLR,,0.13,WeatherDisplay:10.37,2013-09-15 09:38:00,
2013-09-15 04:43:00,55.8,54.3,28.97,East,90,2.3,2.3,95,0.04,CLR,,0.13,WeatherDisplay:10.37,2013-09-15 09:43:00,
2013-09-15 04:48:00,55.8,54.3,28.97,NNE,22,2.3,2.3,95,0.04,CLR,,0.13,WeatherDisplay:10.37,2013-09-15 09:48:00,
2013-09-15 04:53:00,55.8,54.3,28.97,NNE,22,2.0,2.0,95,0.04,CLR,,0.13,WeatherDisplay:10.37,2013-09-15 09:53:00,
2013-09-15 04:58:00,55.8,54.3,28.94,NNE,22,0.0,0.0,95,0.04,CLR,,0.13,WeatherDisplay:10.37,2013-09-15 09:58:00,
2013-09-15 05:03:00,55.8,54.3,28.94,ENE,68,3.3,3.3,95,0.08,RA,,0.17,WeatherDisplay:10.37,2013-09-15 10:03:00,
2013-09-15 05:08:00,55.8,54.3,28.94,ENE,68,2.9,2.9,95,0.04,RA,,0.17,WeatherDisplay:10.37,2013-09-15 10:08:00,
2013-09-15 05:13:00,55.8,54.3,28.94,ENE,68,2.3,2.3,95,0.08,RA,,0.21,WeatherDisplay:10.37,2013-09-15 10:13:00,
2013-09-15 05:18:00,55.6,54.2,28.94,SE,135,2.3,2.3,95,0.08,RA,,0.21,WeatherDisplay:10.37,2013-09-15 10:18:00,
2013-09-15 05:23:00,55.6,54.2,28.94,ESE,112,1.1,0.0,95,0.08,CLR,,0.21,WeatherDisplay:10.37,2013-09-15 10:23:00,
2013-09-15 05:28:00,55.6,54.2,28.97,ENE,68,2.4,2.4,95,0.12,RA,,0.25,WeatherDisplay:10.37,2013-09-15 10:28:00,
2013-09-15 05:33:00,55.6,54.5,28.97,NNE,22,3.5,3.5,96,0.12,RA,,0.25,WeatherDisplay:10.37,2013-09-15 10:33:00,
2013-09-15 05:38:00,55.6,54.5,28.97,NE,45,2.3,2.3,96,0.12,CLR,,0.25,WeatherDisplay:10.37,2013-09-15 10:38:00,
2013-09-15 05:43:00,55.6,54.5,28.97,ENE,68,2.0,2.0,96,0.12,CLR,,0.25,WeatherDisplay:10.37,2013-09-15 10:43:00,
2013-09-15 05:48:00,55.6,54.5,28.97,ENE,68,2.3,2.3,96,0.12,CLR,,0.25,WeatherDisplay:10.37,2013-09-15 10:48:00,
2013-09-15 05:53:00,55.6,54.5,28.97,ENE,68,2.3,2.3,96,0.17,RA,,0.30,WeatherDisplay:10.37,2013-09-15 10:53:00,
2013-09-15 05:58:00,55.6,54.5,28.94,ENE,68,1.1,0.0,96,0.17,RA,,0.30,WeatherDisplay:10.37,2013-09-15 10:58:00,
2013-09-15 06:03:00,55.6,54.5,28.94,ENE,68,1.1,1.1,96,0.13,CLR,,0.30,WeatherDisplay:10.37,2013-09-15 11:03:00,
2013-09-15 06:08:00,55.6,54.5,28.94,ENE,68,1.1,1.1,96,0.13,CLR,,0.30,WeatherDisplay:10.37,2013-09-15 11:08:00,
2013-09-15 06:14:00,55.6,54.5,28.97,ENE,68,1.1,1.1,96,0.09,CLR,,0.30,WeatherDisplay:10.37,2013-09-15 11:14:00,
2013-09-15 06:19:00,55.6,54.5,28.97,ENE,68,1.1,0.0,96,0.12,RA,,0.33,WeatherDisplay:10.37,2013-09-15 11:19:00,
2013-09-15 06:24:00,55.6,54.5,28.97,ENE,68,1.4,1.4,96,0.12,RA,,0.33,WeatherDisplay:10.37,2013-09-15 11:24:00,
2013-09-15 06:29:00,55.6,54.5,28.97,ENE,68,1.1,1.1,96,0.08,CLR,,0.33,WeatherDisplay:10.37,2013-09-15 11:29:00,
2013-09-15 06:34:00,55.6,54.5,28.97,NE,45,3.5,3.5,96,0.08,CLR,,0.33,WeatherDisplay:10.37,2013-09-15 11:34:00,
2013-09-15 06:39:00,55.4,54.3,28.97,NE,45,2.3,2.3,96,0.08,CLR,,0.33,WeatherDisplay:10.37,2013-09-15 11:39:00,
2013-09-15 06:44:00,55.4,54.3,28.97,NE,45,1.4,1.4,96,0.08,CLR,,0.33,WeatherDisplay:10.37,2013-09-15 11:44:00,
2013-09-15 06:49:00,55.4,54.3,28.97,NE,45,2.4,0.0,96,0.13,RA,,0.39,WeatherDisplay:10.37,2013-09-15 11:49:00,
2013-09-15 06:54:00,55.4,54.3,28.97,ENE,68,1.1,1.1,96,0.08,RA,,0.39,WeatherDisplay:10.37,2013-09-15 11:54:00,
2013-09-15 06:59:00,55.4,54.3,28.97,ENE,68,1.6,1.6,96,0.12,RA,,0.43,WeatherDisplay:10.37,2013-09-15 11:59:00,
2013-09-15 07:04:00,55.4,54.3,28.97,ENE,68,2.3,2.3,96,0.12,RA,,0.43,WeatherDisplay:10.37,2013-09-15 12:04:00,
2013-09-15 07:09:00,55.4,54.3,28.97,ENE,68,2.3,2.3,96,0.12,CLR,,0.43,WeatherDisplay:10.37,2013-09-15 12:09:00,
2013-09-15 07:14:00,55.4,54.3,29.00,ENE,68,2.3,2.3,96,0.12,CLR,,0.43,WeatherDisplay:10.37,2013-09-15 12:14:00,
2013-09-15 07:19:00,55.4,54.3,29.00,ENE,68,2.3,2.3,96,0.09,CLR,,0.43,WeatherDisplay:10.37,2013-09-15 12:19:00,
2013-09-15 07:24:00,55.4,54.3,29.00,ENE,68,2.3,2.3,96,0.09,CLR,,0.43,WeatherDisplay:10.37,2013-09-15 12:24:00,
2013-09-15 07:29:00,55.4,54.3,29.00,NE,45,1.1,1.1,96,0.09,CLR,,0.43,WeatherDisplay:10.37,2013-09-15 12:29:00,
2013-09-15 07:34:00,55.4,54.3,29.00,NE,45,1.4,1.4,96,0.09,CLR,,0.43,WeatherDisplay:10.37,2013-09-15 12:34:00,
2013-09-15 07:39:00,55.4,54.3,29.00,NE,45,2.3,2.3,96,0.09,CLR,,0.43,WeatherDisplay:10.37,2013-09-15 12:39:00,
2013-09-15 07:44:00,55.4,54.3,29.00,NE,45,2.4,2.4,96,0.09,CLR,,0.43,WeatherDisplay:10.37,2013-09-15 12:44:00,
2013-09-15 07:49:00,55.4,54.3,29.00,ENE,68,2.3,2.3,96,0.04,CLR,,0.43,WeatherDisplay:10.37,2013-09-15 12:49:00,
2013-09-15 07:54:00,55.4,54.3,29.00,ENE,68,2.3,2.3,96,0.04,CLR,,0.43,WeatherDisplay:10.37,2013-09-15 12:54:00,
2013-09-15 07:59:00,55.6,54.5,29.00,ENE,68,1.1,1.1,96,0.00,CLR,,0.43,WeatherDisplay:10.37,2013-09-15 12:59:00,
2013-09-15 08:04:00,55.6,54.5,29.00,ENE,68,1.1,1.1,96,0.00,CLR,,0.43,WeatherDisplay:10.37,2013-09-15 13:04:00,
2013-09-15 08:09:00,55.6,54.7,29.00,ENE,68,0.0,0.0,97,0.00,CLR,,0.43,WeatherDisplay:10.37,2013-09-15 13:09:00,
2013-09-15 08:14:00,55.6,54.7,29.00,ENE,68,1.1,0.0,97,0.00,CLR,,0.43,WeatherDisplay:10.37,2013-09-15 13:14:00,
2013-09-15 08:19:00,55.8,54.9,29.00,ENE,68,2.3,2.3,97,0.00,CLR,,0.43,WeatherDisplay:10.37,2013-09-15 13:19:00,
2013-09-15 08:24:00,55.9,55.1,29.00,ENE,68,1.4,1.4,97,0.00,CLR,,0.43,WeatherDisplay:10.37,2013-09-15 13:24:00,
2013-09-15 08:29:00,56.1,55.3,29.00,NE,45,2.3,2.3,97,0.00,CLR,,0.43,WeatherDisplay:10.37,2013-09-15 13:29:00,
2013-09-15 08:34:00,56.1,55.3,29.00,ENE,68,3.3,3.3,97,0.00,CLR,,0.43,WeatherDisplay:10.37,2013-09-15 13:34:00,
2013-09-15 08:39:00,56.3,55.5,29.00,East,90,3.1,3.1,97,0.00,CLR,,0.43,WeatherDisplay:10.37,2013-09-15 13:39:00,
2013-09-15 08:44:00,56.5,55.6,29.00,ENE,68,2.3,2.3,97,0.00,CLR,,0.43,WeatherDisplay:10.37,2013-09-15 13:44:00,
2013-09-15 08:49:00,56.7,55.8,29.00,ENE,68,2.3,2.3,97,0.00,CLR,,0.43,WeatherDisplay:10.37,2013-09-15 13:49:00,
2013-09-15 08:54:00,56.7,55.8,29.00,NNE,22,3.1,3.1,97,0.00,CLR,,0.43,WeatherDisplay:10.37,2013-09-15 13:54:00,
2013-09-15 08:59:00,56.8,56.0,29.03,NE,45,2.4,2.4,97,0.00,CLR,,0.43,WeatherDisplay:10.37,2013-09-15 13:59:00,
2013-09-15 09:04:00,57.0,56.2,29.03,NE,45,2.3,2.3,97,0.00,CLR,,0.43,WeatherDisplay:10.37,2013-09-15 14:04:00,
2013-09-15 09:09:00,57.2,56.4,29.03,NE,45,2.3,2.3,97,0.00,CLR,,0.43,WeatherDisplay:10.37,2013-09-15 14:09:00,
2013-09-15 09:14:00,57.4,56.2,29.03,NE,45,4.6,4.6,96,0.00,CLR,,0.43,WeatherDisplay:10.37,2013-09-15 14:14:00,
2013-09-15 09:19:00,57.6,56.4,29.03,NE,45,2.9,2.9,96,0.00,CLR,,0.43,WeatherDisplay:10.37,2013-09-15 14:19:00,
2013-09-15 09:24:00,57.6,56.4,29.03,ENE,68,1.4,2.0,96,0.00,CLR,,0.43,WeatherDisplay:10.37,2013-09-15 14:24:00,
2013-09-15 09:29:00,57.7,56.6,29.03,ENE,68,3.5,3.5,96,0.00,CLR,,0.43,WeatherDisplay:10.37,2013-09-15 14:29:00,
2013-09-15 09:34:00,57.9,56.8,29.03,ENE,68,3.5,3.5,96,0.00,CLR,,0.43,WeatherDisplay:10.37,2013-09-15 14:34:00,
2013-09-15 09:39:00,58.1,57.0,29.03,NE,45,3.6,3.6,96,0.00,CLR,,0.43,WeatherDisplay:10.37,2013-09-15 14:39:00,
2013-09-15 09:44:00,58.1,56.7,29.06,ENE,68,5.8,5.8,95,0.00,CLR,,0.43,WeatherDisplay:10.37,2013-09-15 14:44:00,
2013-09-15 09:49:00,58.3,56.9,29.06,NE,45,2.3,2.3,95,0.00,CLR,,0.43,WeatherDisplay:10.37,2013-09-15 14:49:00,
2013-09-15 09:54:00,58.3,56.6,29.06,NE,45,2.6,2.6,94,0.00,CLR,,0.43,WeatherDisplay:10.37,2013-09-15 14:54:00,
2013-09-15 09:59:00,58.5,56.7,29.03,NE,45,4.6,4.6,94,0.00,CLR,,0.43,WeatherDisplay:10.37,2013-09-15 14:59:00,
2013-09-15 10:04:00,58.5,56.7,29.03,ENE,68,3.3,3.3,94,0.00,CLR,,0.43,WeatherDisplay:10.37,2013-09-15 15:04:00,
2013-09-15 10:09:00,58.5,56.7,29.03,ENE,68,2.6,2.6,94,0.00,CLR,,0.43,WeatherDisplay:10.37,2013-09-15 15:09:00,
2013-09-15 10:14:00,58.6,56.9,29.03,ENE,68,2.2,2.2,94,0.00,CLR,,0.43,WeatherDisplay:10.37,2013-09-15 15:14:00,
2013-09-15 10:19:00,58.6,56.9,29.03,NE,45,2.3,2.3,94,0.00,CLR,,0.43,WeatherDisplay:10.37,2013-09-15 15:19:00,
2013-09-15 10:24:00,58.8,57.1,29.03,NE,45,2.3,2.3,94,0.00,CLR,,0.43,WeatherDisplay:10.37,2013-09-15 15:24:00,
2013-09-15 10:29:00,58.8,57.1,29.03,NE,45,4.3,4.3,94,0.00,CLR,,0.43,WeatherDisplay:10.37,2013-09-15 15:29:00,
2013-09-15 10:34:00,58.8,57.1,29.03,ENE,68,3.1,3.1,94,0.00,CLR,,0.43,WeatherDisplay:10.37,2013-09-15 15:34:00,
2013-09-15 10:39:00,59.0,57.0,29.03,NE,45,2.9,2.9,93,0.00,CLR,,0.43,WeatherDisplay:10.37,2013-09-15 15:39:00,
2013-09-15 10:44:00,59.0,57.0,29.06,ENE,68,3.5,3.5,93,0.00,CLR,,0.43,WeatherDisplay:10.37,2013-09-15 15:44:00,
2013-09-15 10:49:00,59.2,57.2,29.06,NNE,22,2.4,2.4,93,0.00,CLR,,0.43,WeatherDisplay:10.37,2013-09-15 15:49:00,
2013-09-15 10:54:00,59.4,57.3,29.06,SE,135,4.6,4.6,93,0.00,CLR,,0.43,WeatherDisplay:10.37,2013-09-15 15:54:00,
2013-09-15 10:59:00,59.4,57.0,29.06,ENE,68,6.9,6.9,92,0.00,CLR,,0.43,WeatherDisplay:10.37,2013-09-15 15:59:00,
2013-09-15 11:04:00,59.5,57.2,29.06,NE,45,5.4,5.4,92,0.00,CLR,,0.43,WeatherDisplay:10.37,2013-09-15 16:04:00,
2013-09-15 11:09:00,59.7,57.4,29.06,East,90,8.1,8.1,92,0.00,CLR,,0.43,WeatherDisplay:10.37,2013-09-15 16:09:00,
2013-09-15 11:14:00,59.9,57.6,29.06,North,0,5.8,5.8,92,0.00,CLR,,0.43,WeatherDisplay:10.37,2013-09-15 16:14:00,
2013-09-15 11:19:00,59.9,57.3,29.06,NE,45,3.5,3.5,91,0.00,CLR,,0.43,WeatherDisplay:10.37,2013-09-15 16:19:00,
2013-09-15 11:24:00,59.9,57.3,29.06,WNW,292,3.6,3.6,91,0.00,CLR,,0.43,WeatherDisplay:10.37,2013-09-15 16:24:00,
2013-09-15 11:29:00,59.9,57.0,29.06,NE,45,5.8,5.8,90,0.00,CLR,,0.43,WeatherDisplay:10.37,2013-09-15 16:29:00,
2013-09-15 11:34:00,60.6,58.0,29.06,East,90,5.8,5.8,91,0.00,CLR,,0.43,WeatherDisplay:10.37,2013-09-15 16:34:00,
2013-09-15 11:39:00,61.7,58.7,29.06,SE,135,4.9,4.9,90,0.00,CLR,,0.43,WeatherDisplay:10.37,2013-09-15 16:39:00,
2013-09-15 11:44:00,62.6,59.3,29.09,ENE,68,6.9,6.9,89,0.00,CLR,,0.43,WeatherDisplay:10.37,2013-09-15 16:44:00,
2013-09-15 11:49:00,63.3,59.4,29.09,NNE,22,4.6,4.6,87,0.00,CLR,,0.43,WeatherDisplay:10.37,2013-09-15 16:49:00,
2013-09-15 11:54:00,63.3,57.7,29.09,NE,45,7.8,7.8,82,0.00,CLR,,0.43,WeatherDisplay:10.37,2013-09-15 16:54:00,
2013-09-15 11:59:00,63.1,56.2,29.09,ENE,68,6.9,6.9,78,0.00,CLR,,0.43,WeatherDisplay:10.37,2013-09-15 16:59:00,
2013-09-15 12:04:00,63.0,57.0,29.09,NNE,22,6.9,6.9,81,0.00,CLR,,0.43,WeatherDisplay:10.37,2013-09-15 17:04:00,
2013-09-15 12:09:00,63.0,57.0,29.09,NNE,22,5.8,5.8,81,0.00,CLR,,0.43,WeatherDisplay:10.37,2013-09-15 17:09:00,
2013-09-15 12:14:00,63.0,57.0,29.09,NNE,22,5.8,5.8,81,0.00,CLR,,0.43,WeatherDisplay:10.37,2013-09-15 17:14:00,
2013-09-15 12:19:00,63.0,57.0,29.09,North,0,5.6,5.6,81,0.00,CLR,,0.43,WeatherDisplay:10.37,2013-09-15 17:19:00,
2013-09-15 12:24:00,62.8,56.5,29.09,NE,45,5.8,5.8,80,0.00,CLR,,0.43,WeatherDisplay:10.37,2013-09-15 17:24:00,
2013-09-15 12:29:00,63.1,57.2,29.09,ENE,68,4.6,4.6,81,0.00,CLR,,0.43,WeatherDisplay:10.37,2013-09-15 17:29:00,
2013-09-15 12:34:00,63.3,57.0,29.09,NNE,22,5.8,5.8,80,0.00,CLR,,0.43,WeatherDisplay:10.37,2013-09-15 17:34:00,
2013-09-15 12:39:00,63.3,57.0,29.09,NNE,22,5.8,5.8,80,0.00,CLR,,0.43,WeatherDisplay:10.37,2013-09-15 17:39:00,
2013-09-15 12:44:00,63.7,57.0,29.09,East,90,3.6,3.6,79,0.00,CLR,,0.43,WeatherDisplay:10.37,2013-09-15 17:44:00,
2013-09-15 12:49:00,63.5,56.5,29.09,ENE,68,4.6,4.6,78,0.00,CLR,,0.43,WeatherDisplay:10.37,2013-09-15 17:49:00,
2013-09-15 12:55:00,63.9,57.2,29.09,NNW,338,5.8,5.8,79,0.00,CLR,,0.43,WeatherDisplay:10.37,2013-09-15 17:55:00,
2013-09-15 13:00:00,64.9,57.2,29.12,NE,45,8.1,8.1,76,0.00,CLR,,0.43,WeatherDisplay:10.37,2013-09-15 18:00:00,
2013-09-15 13:05:00,65.3,57.5,29.12,ENE,68,3.6,3.6,76,0.00,CLR,,0.43,WeatherDisplay:10.37,2013-09-15 18:05:00,
2013-09-15 13:10:00,65.1,56.6,29.12,East,90,4.6,4.6,74,0.00,CLR,,0.43,WeatherDisplay:10.37,2013-09-15 18:10:00,
2013-09-15 13:15:00,64.8,55.9,29.06,ENE,68,5.9,5.9,73,0.00,CLR,,0.43,WeatherDisplay:10.37,2013-09-15 18:15:00,
2013-09-15 13:20:00,64.6,56.1,29.06,NE,45,5.8,5.8,74,0.00,CLR,,0.43,WeatherDisplay:10.37,2013-09-15 18:20:00,
2013-09-15 13:25:00,64.4,56.3,29.06,ENE,68,5.8,5.8,75,0.00,CLR,,0.43,WeatherDisplay:10.37,2013-09-15 18:25:00,
2013-09-15 13:30:00,64.8,56.6,29.09,ENE,68,5.8,5.8,75,0.00,CLR,,0.43,WeatherDisplay:10.37,2013-09-15 18:30:00,
2013-09-15 13:35:00,65.1,56.6,29.09,NE,45,5.8,5.8,74,0.00,CLR,,0.43,WeatherDisplay:10.37,2013-09-15 18:35:00,
2013-09-15 13:40:00,65.8,57.7,29.09,NNE,22,5.8,5.8,75,0.00,CLR,,0.43,WeatherDisplay:10.37,2013-09-15 18:40:00,
2013-09-15 13:45:00,66.0,56.3,29.06,North,0,6.9,6.9,71,0.00,CLR,,0.43,WeatherDisplay:10.37,2013-09-15 18:45:00,
2013-09-15 13:50:00,65.8,56.2,29.06,North,0,5.8,5.8,71,0.00,CLR,,0.43,WeatherDisplay:10.37,2013-09-15 18:50:00,
2013-09-15 13:55:00,65.5,55.4,29.06,NE,45,5.8,5.8,70,0.00,CLR,,0.43,WeatherDisplay:10.37,2013-09-15 18:55:00,
2013-09-15 14:00:00,65.3,55.7,29.09,WNW,292,5.8,5.8,71,0.00,CLR,,0.43,WeatherDisplay:10.37,2013-09-15 19:00:00,
2013-09-15 14:05:00,65.1,55.9,29.09,NNW,338,3.5,3.5,72,0.00,CLR,,0.43,WeatherDisplay:10.37,2013-09-15 19:05:00,
2013-09-15 14:10:00,64.9,55.7,29.09,ENE,68,5.8,5.8,72,0.00,CLR,,0.43,WeatherDisplay:10.37,2013-09-15 19:10:00,
2013-09-15 14:15:00,64.9,55.7,29.12,NE,45,3.5,3.5,72,0.00,CLR,,0.43,WeatherDisplay:10.37,2013-09-15 19:15:00,
2013-09-15 14:18:00,64.9,55.7,29.12,ENE,68,3.5,3.5,72,0.00,CLR,,0.43,WeatherDisplay:10.37,2013-09-15 19:18:00,
2013-09-15 14:23:00,64.9,55.7,29.12,ENE,68,8.1,8.1,72,0.00,CLR,,0.43,WeatherDisplay:10.37,2013-09-15 19:23:00,
2013-09-15 14:28:00,65.1,55.9,29.12,ENE,68,9.2,9.2,72,0.00,CLR,,0.43,WeatherDisplay:10.37,2013-09-15 19:28:00,
2013-09-15 14:33:00,64.9,55.3,29.12,East,90,5.8,5.8,71,0.00,CLR,,0.43,WeatherDisplay:10.37,2013-09-15 19:33:00,
2013-09-15 14:38:00,64.9,55.3,29.12,NNW,338,4.6,4.6,71,0.00,CLR,,0.43,WeatherDisplay:10.37,2013-09-15 19:38:00,
2013-09-15 14:43:00,65.1,55.5,29.12,East,90,3.8,3.8,71,0.00,CLR,,0.43,WeatherDisplay:10.37,2013-09-15 19:43:00,
2013-09-15 14:48:00,65.3,55.7,29.12,NNE,22,4.6,4.6,71,0.00,CLR,,0.43,WeatherDisplay:10.37,2013-09-15 19:48:00,
2013-09-15 14:53:00,65.3,56.0,29.12,ENE,68,3.5,3.6,72,0.00,CLR,,0.43,WeatherDisplay:10.37,2013-09-15 19:53:00,
2013-09-15 14:58:00,65.3,56.0,29.12,North,0,3.5,3.5,72,0.00,CLR,,0.43,WeatherDisplay:10.37,2013-09-15 19:58:00,
2013-09-15 15:03:00,65.5,56.2,29.12,NE,45,5.8,5.8,72,0.00,CLR,,0.43,WeatherDisplay:10.37,2013-09-15 20:03:00,
2013-09-15 15:08:00,65.5,55.8,29.12,NNE,22,4.6,4.6,71,0.00,CLR,,0.43,WeatherDisplay:10.37,2013-09-15 20:08:00,
2013-09-15 15:13:00,65.7,56.4,29.12,ENE,68,4.9,4.9,72,0.00,CLR,,0.43,WeatherDisplay:10.37,2013-09-15 20:13:00,
2013-09-15 15:18:00,66.0,56.3,29.12,ENE,68,7.6,7.6,71,0.00,CLR,,0.43,WeatherDisplay:10.37,2013-09-15 20:18:00,
2013-09-15 15:23:00,66.2,56.1,29.12,NE,45,5.8,5.8,70,0.00,CLR,,0.43,WeatherDisplay:10.37,2013-09-15 20:23:00,
2013-09-15 15:28:00,66.2,56.1,29.12,NE,45,5.8,5.8,70,0.00,CLR,,0.43,WeatherDisplay:10.37,2013-09-15 20:28:00,
2013-09-15 15:33:00,65.5,55.4,29.12,SE,135,5.8,5.8,70,0.00,CLR,,0.43,WeatherDisplay:10.37,2013-09-15 20:33:00,
2013-09-15 15:38:00,65.1,55.5,29.12,NNE,22,5.8,5.8,71,0.00,CLR,,0.43,WeatherDisplay:10.37,2013-09-15 20:38:00,
2013-09-15 15:43:00,64.9,55.7,29.15,ENE,68,6.0,6.0,72,0.00,CLR,,0.43,WeatherDisplay:10.37,2013-09-15 20:43:00,
2013-09-15 15:48:00,64.8,55.9,29.15,NNW,338,8.1,8.1,73,0.00,CLR,,0.43,WeatherDisplay:10.37,2013-09-15 20:48:00,
2013-09-15 15:53:00,64.8,55.9,29.15,East,90,4.6,4.6,73,0.00,CLR,,0.43,WeatherDisplay:10.37,2013-09-15 20:53:00,
2013-09-15 15:58:00,64.8,55.9,29.15,NE,45,3.5,3.5,73,0.00,CLR,,0.43,WeatherDisplay:10.37,2013-09-15 20:58:00,
2013-09-15 16:03:00,64.8,55.5,29.15,North,0,8.1,8.1,72,0.00,CLR,,0.43,WeatherDisplay:10.37,2013-09-15 21:03:00,
2013-09-15 16:08:00,64.8,55.5,29.15,NE,45,6.9,6.9,72,0.00,CLR,,0.43,WeatherDisplay:10.37,2013-09-15 21:08:00,
2013-09-15 16:13:00,64.8,55.5,29.15,SSE,158,5.8,5.8,72,0.00,CLR,,0.43,WeatherDisplay:10.37,2013-09-15 21:13:00,
2013-09-15 16:18:00,64.6,55.3,29.15,NNE,22,5.8,5.8,72,0.00,CLR,,0.43,WeatherDisplay:10.37,2013-09-15 21:18:00,
2013-09-15 16:23:00,64.2,55.0,29.15,ENE,68,8.1,8.1,72,0.00,CLR,,0.43,WeatherDisplay:10.37,2013-09-15 21:23:00,
2013-09-15 16:28:00,64.4,55.2,29.15,ENE,68,5.8,5.8,72,0.00,CLR,,0.43,WeatherDisplay:10.37,2013-09-15 21:28:00,
2013-09-15 16:33:00,64.6,55.7,29.15,NNW,338,3.5,3.5,73,0.00,CLR,,0.43,WeatherDisplay:10.37,2013-09-15 21:33:00,
2013-09-15 16:38:00,64.9,55.7,29.15,ENE,68,8.1,8.1,72,0.00,CLR,,0.43,WeatherDisplay:10.37,2013-09-15 21:38:00,
2013-09-15 16:43:00,64.8,55.1,29.12,ENE,68,6.9,6.9,71,0.00,CLR,,0.43,WeatherDisplay:10.37,2013-09-15 21:43:00,
2013-09-15 16:48:00,64.6,55.3,29.12,NE,45,8.1,8.1,72,0.00,CLR,,0.43,WeatherDisplay:10.37,2013-09-15 21:48:00,
2013-09-15 16:53:00,64.4,55.2,29.12,NNE,22,5.8,5.8,72,0.00,CLR,,0.43,WeatherDisplay:10.37,2013-09-15 21:53:00,
2013-09-15 16:58:00,64.2,54.2,29.15,NNE,22,10.4,10.4,70,0.00,CLR,,0.43,WeatherDisplay:10.37,2013-09-15 21:58:00,
2013-09-15 17:03:00,63.9,53.9,29.15,NNE,22,8.1,8.1,70,0.00,CLR,,0.43,WeatherDisplay:10.37,2013-09-15 22:03:00,
2013-09-15 17:08:00,63.7,54.1,29.15,ENE,68,5.8,5.8,71,0.00,CLR,,0.43,WeatherDisplay:10.37,2013-09-15 22:08:00,
2013-09-15 17:13:00,63.7,54.1,29.18,NNE,22,7.8,7.8,71,0.00,CLR,,0.43,WeatherDisplay:10.37,2013-09-15 22:13:00,
2013-09-15 17:18:00,63.7,53.7,29.18,ENE,68,12.7,12.7,70,0.00,CLR,,0.43,WeatherDisplay:10.37,2013-09-15 22:18:00,
2013-09-15 17:23:00,63.1,53.2,29.18,East,90,5.8,5.8,70,0.00,CLR,,0.43,WeatherDisplay:10.37,2013-09-15 22:23:00,
2013-09-15 17:28:00,63.0,52.6,29.20,NNE,22,8.1,8.1,69,0.00,CLR,,0.43,WeatherDisplay:10.37,2013-09-15 22:28:00,
2013-09-15 17:33:00,62.6,52.3,29.20,ENE,68,6.9,6.9,69,0.00,CLR,,0.43,WeatherDisplay:10.37,2013-09-15 22:33:00,
2013-09-15 17:38:00,62.4,52.5,29.20,SE,135,6.9,6.9,70,0.00,CLR,,0.43,WeatherDisplay:10.37,2013-09-15 22:38:00,
2013-09-15 17:43:00,62.2,51.9,29.20,North,0,9.2,9.2,69,0.00,CLR,,0.43,WeatherDisplay:10.37,2013-09-15 22:43:00,
2013-09-15 17:48:00,62.1,51.8,29.20,East,90,10.0,10.0,69,0.00,CLR,,0.43,WeatherDisplay:10.37,2013-09-15 22:48:00,
2013-09-15 17:53:00,61.9,52.0,29.20,South,180,4.6,4.6,70,0.00,CLR,,0.43,WeatherDisplay:10.37,2013-09-15 22:53:00,
2013-09-15 17:58:00,61.7,51.8,29.18,NNE,22,5.8,5.8,70,0.00,CLR,,0.43,WeatherDisplay:10.37,2013-09-15 22:58:00,
2013-09-15 18:03:00,61.5,51.6,29.18,ESE,112,8.1,8.1,70,0.00,CLR,,0.43,WeatherDisplay:10.37,2013-09-15 23:03:00,
2013-09-15 18:08:00,61.3,51.5,29.18,ENE,68,5.8,5.8,70,0.00,CLR,,0.43,WeatherDisplay:10.37,2013-09-15 23:08:00,
2013-09-15 18:13:00,61.2,51.7,29.20,ENE,68,5.8,5.8,71,0.00,CLR,,0.43,WeatherDisplay:10.37,2013-09-15 23:13:00,
2013-09-15 18:18:00,61.0,51.1,29.20,ENE,68,5.8,5.8,70,0.00,CLR,,0.43,WeatherDisplay:10.37,2013-09-15 23:18:00,
2013-09-15 18:23:00,60.8,51.3,29.20,ENE,68,5.8,5.8,71,0.00,CLR,,0.43,WeatherDisplay:10.37,2013-09-15 23:23:00,
2013-09-15 18:28:00,60.6,51.2,29.20,NE,45,6.9,6.9,71,0.00,CLR,,0.43,WeatherDisplay:10.37,2013-09-15 23:28:00,
2013-09-15 18:33:00,60.4,51.0,29.20,East,90,5.8,5.8,71,0.00,CLR,,0.43,WeatherDisplay:10.37,2013-09-15 23:33:00,
2013-09-15 18:38:00,60.3,50.8,29.20,NNW,338,8.1,8.1,71,0.00,CLR,,0.43,WeatherDisplay:10.37,2013-09-15 23:38:00,
2013-09-15 18:43:00,59.9,50.5,29.24,ENE,68,8.1,8.1,71,0.00,CLR,,0.43,WeatherDisplay:10.37,2013-09-15 23:43:00,
2013-09-15 18:48:00,59.7,50.7,29.24,NNW,338,5.8,5.8,72,0.00,CLR,,0.43,WeatherDisplay:10.37,2013-09-15 23:48:00,
2013-09-15 18:53:00,59.4,50.3,29.24,ENE,68,5.8,5.8,72,0.00,CLR,,0.43,WeatherDisplay:10.37,2013-09-15 23:53:00,
2013-09-15 18:58:00,59.2,50.2,29.24,NE,45,5.8,5.8,72,0.00,CLR,,0.43,WeatherDisplay:10.37,2013-09-15 23:58:00,
2013-09-15 19:03:00,58.8,49.8,29.24,East,90,5.8,5.8,72,0.00,CLR,,0.43,WeatherDisplay:10.37,2013-09-16 00:03:00,
2013-09-15 19:08:00,58.5,49.5,29.24,NW,315,3.8,3.8,72,0.00,CLR,,0.43,WeatherDisplay:10.37,2013-09-16 00:08:00,
2013-09-15 19:13:00,57.9,48.9,29.26,ENE,68,6.0,6.0,72,0.00,CLR,,0.43,WeatherDisplay:10.37,2013-09-16 00:13:00,
2013-09-15 19:18:00,57.7,48.8,29.26,NE,45,5.8,5.8,72,0.00,CLR,,0.43,WeatherDisplay:10.37,2013-09-16 00:18:00,
2013-09-15 19:23:00,57.4,48.4,29.26,ENE,68,8.1,8.1,72,0.00,CLR,,0.43,WeatherDisplay:10.37,2013-09-16 00:23:00,
2013-09-15 19:28:00,57.0,48.4,29.26,North,0,3.6,3.6,73,0.00,CLR,,0.43,WeatherDisplay:10.37,2013-09-16 00:28:00,
2013-09-15 19:33:00,56.8,48.3,29.26,NE,45,5.8,5.8,73,0.00,CLR,,0.43,WeatherDisplay:10.37,2013-09-16 00:33:00,
2013-09-15 19:38:00,56.7,48.1,29.26,NE,45,4.6,4.6,73,0.00,CLR,,0.43,WeatherDisplay:10.37,2013-09-16 00:38:00,
2013-09-15 19:43:00,56.3,47.4,29.26,NNE,22,5.8,5.8,72,0.00,CLR,,0.43,WeatherDisplay:10.37,2013-09-16 00:43:00,
2013-09-15 19:48:00,56.1,47.6,29.26,NE,45,4.6,4.6,73,0.00,CLR,,0.43,WeatherDisplay:10.37,2013-09-16 00:48:00,
2013-09-15 19:53:00,55.9,47.4,29.26,ENE,68,10.4,10.4,73,0.00,CLR,,0.43,WeatherDisplay:10.37,2013-09-16 00:53:00,
2013-09-15 19:58:00,55.4,46.9,29.24,ENE,68,4.7,4.7,73,0.00,CLR,,0.43,WeatherDisplay:10.37,2013-09-16 00:58:00,
2013-09-15 20:04:00,55.2,47.1,29.24,East,90,4.6,4.6,74,0.00,CLR,,0.43,WeatherDisplay:10.37,2013-09-16 01:04:00,
2013-09-15 20:09:00,54.9,46.7,29.24,ENE,68,5.8,5.8,74,0.00,CLR,,0.43,WeatherDisplay:10.37,2013-09-16 01:09:00,
2013-09-15 20:14:00,54.5,46.4,29.26,NNE,22,3.6,3.8,74,0.00,CLR,,0.43,WeatherDisplay:10.37,2013-09-16 01:14:00,
2013-09-15 20:19:00,54.1,46.0,29.26,ENE,68,4.6,4.6,74,0.00,CLR,,0.43,WeatherDisplay:10.37,2013-09-16 01:19:00,
2013-09-15 20:24:00,54.0,45.9,29.26,ENE,68,4.6,4.6,74,0.00,CLR,,0.43,WeatherDisplay:10.37,2013-09-16 01:24:00,
2013-09-15 20:29:00,53.4,45.3,29.26,East,90,4.6,4.6,74,0.00,CLR,,0.43,WeatherDisplay:10.37,2013-09-16 01:29:00,
2013-09-15 20:34:00,53.4,45.3,29.26,ENE,68,4.6,4.6,74,0.00,CLR,,0.43,WeatherDisplay:10.37,2013-09-16 01:34:00,
2013-09-15 20:39:00,52.9,45.2,29.26,ENE,68,2.3,2.9,75,0.00,CLR,,0.43,WeatherDisplay:10.37,2013-09-16 01:39:00,
2013-09-15 20:44:00,52.7,45.0,29.26,NE,45,5.8,5.8,75,0.00,CLR,,0.43,WeatherDisplay:10.37,2013-09-16 01:44:00,
2013-09-15 20:49:00,52.3,44.6,29.26,East,90,9.2,9.2,75,0.00,CLR,,0.43,WeatherDisplay:10.37,2013-09-16 01:49:00,
2013-09-15 20:54:00,52.0,44.3,29.26,NE,45,3.5,3.5,75,0.00,CLR,,0.43,WeatherDisplay:10.37,2013-09-16 01:54:00,
2013-09-15 20:59:00,51.8,44.1,29.29,ESE,112,5.8,5.8,75,0.00,CLR,,0.43,WeatherDisplay:10.37,2013-09-16 01:59:00,
2013-09-15 21:04:00,51.6,44.0,29.29,ENE,68,5.8,5.8,75,0.00,CLR,,0.43,WeatherDisplay:10.37,2013-09-16 02:04:00,
2013-09-15 21:09:00,51.3,43.6,29.29,ENE,68,4.6,4.6,75,0.00,CLR,,0.43,WeatherDisplay:10.37,2013-09-16 02:09:00,
2013-09-15 21:14:00,51.1,43.4,29.29,ENE,68,4.6,4.6,75,0.00,CLR,,0.43,WeatherDisplay:10.37,2013-09-16 02:14:00,
2013-09-15 21:19:00,50.9,43.3,29.29,WNW,292,3.5,3.5,75,0.00,CLR,,0.43,WeatherDisplay:10.37,2013-09-16 02:19:00,
2013-09-15 21:24:00,50.7,43.1,29.29,ENE,68,3.5,3.5,75,0.00,CLR,,0.43,WeatherDisplay:10.37,2013-09-16 02:24:00,
2013-09-15 21:29:00,50.5,43.3,29.32,East,90,2.4,2.4,76,0.00,CLR,,0.43,WeatherDisplay:10.37,2013-09-16 02:29:00,
2013-09-15 21:34:00,50.4,43.1,29.32,ENE,68,1.1,1.1,76,0.00,CLR,,0.43,WeatherDisplay:10.37,2013-09-16 02:34:00,
2013-09-15 21:39:00,50.2,42.9,29.32,NE,45,2.4,2.4,76,0.00,CLR,,0.43,WeatherDisplay:10.37,2013-09-16 02:39:00,
2013-09-15 21:44:00,50.0,42.7,29.32,NE,45,2.3,2.3,76,0.00,CLR,,0.43,WeatherDisplay:10.37,2013-09-16 02:44:00,
2013-09-15 21:49:00,50.0,43.1,29.32,ENE,68,1.1,1.1,77,0.00,CLR,,0.43,WeatherDisplay:10.37,2013-09-16 02:49:00,
2013-09-15 21:54:00,50.0,43.1,29.32,ENE,68,2.3,0.0,77,0.00,CLR,,0.43,WeatherDisplay:10.37,2013-09-16 02:54:00,
2013-09-15 21:59:00,50.0,43.4,29.32,NE,45,3.5,3.5,78,0.00,CLR,,0.43,WeatherDisplay:10.37,2013-09-16 02:59:00,
2013-09-15 22:04:00,50.2,43.2,29.32,NE,45,9.2,9.2,77,0.00,CLR,,0.43,WeatherDisplay:10.37,2013-09-16 03:04:00,
2013-09-15 22:09:00,50.2,42.9,29.32,ENE,68,6.9,6.9,76,0.00,CLR,,0.43,WeatherDisplay:10.37,2013-09-16 03:09:00,
2013-09-15 22:14:00,50.2,42.9,29.32,ENE,68,4.6,4.6,76,0.00,CLR,,0.43,WeatherDisplay:10.37,2013-09-16 03:14:00,
2013-09-15 22:19:00,50.0,42.4,29.32,NNW,338,3.5,3.5,75,0.00,CLR,,0.43,WeatherDisplay:10.37,2013-09-16 03:19:00,
2013-09-15 22:24:00,50.0,42.4,29.32,NE,45,3.8,3.8,75,0.00,CLR,,0.43,WeatherDisplay:10.37,2013-09-16 03:24:00,
2013-09-15 22:29:00,49.6,42.4,29.32,ENE,68,2.4,2.4,76,0.00,CLR,,0.43,WeatherDisplay:10.37,2013-09-16 03:29:00,
2013-09-15 22:34:00,49.5,42.2,29.32,NE,45,0.0,0.0,76,0.00,CLR,,0.43,WeatherDisplay:10.37,2013-09-16 03:34:00,
2013-09-15 22:39:00,49.3,42.0,29.32,NE,45,1.1,0.0,76,0.00,CLR,,0.43,WeatherDisplay:10.37,2013-09-16 03:39:00,
2013-09-15 22:44:00,49.1,41.9,29.29,ENE,68,2.0,2.0,76,0.00,CLR,,0.43,WeatherDisplay:10.37,2013-09-16 03:44:00,
2013-09-15 22:49:00,48.7,41.5,29.29,ENE,68,2.4,2.4,76,0.00,CLR,,0.43,WeatherDisplay:10.37,2013-09-16 03:49:00,
2013-09-15 22:54:00,48.6,41.3,29.29,ENE,68,1.1,1.1,76,0.00,CLR,,0.43,WeatherDisplay:10.37,2013-09-16 03:54:00,
2013-09-15 22:59:00,48.4,41.5,29.29,ENE,68,2.3,2.3,77,0.00,CLR,,0.43,WeatherDisplay:10.37,2013-09-16 03:59:00,
2013-09-15 23:01:00,48.2,41.3,29.29,ENE,68,2.3,2.3,77,0.00,CLR,,0.43,WeatherDisplay:10.37,2013-09-16 04:01:00,
2013-09-15 23:06:00,48.0,41.5,29.29,ENE,68,2.3,2.3,78,0.00,CLR,,0.43,WeatherDisplay:10.37,2013-09-16 04:06:00,
2013-09-15 23:11:00,47.7,41.1,29.32,ENE,68,0.0,0.0,78,0.00,CLR,,0.43,WeatherDisplay:10.37,2013-09-16 04:11:00,
2013-09-15 23:16:00,47.3,40.8,29.32,ENE,68,0.0,0.0,78,0.00,CLR,,0.43,WeatherDisplay:10.37,2013-09-16 04:16:00,
2013-09-15 23:21:00,47.1,40.9,29.32,ENE,68,0.0,0.0,79,0.00,CLR,,0.43,WeatherDisplay:10.37,2013-09-16 04:21:00,
2013-09-15 23:26:00,46.8,40.6,29.32,ENE,68,0.0,0.0,79,0.00,CLR,,0.43,WeatherDisplay:10.37,2013-09-16 04:26:00,
2013-09-15 23:31:00,46.6,40.7,29.32,ENE,68,0.0,0.0,80,0.00,CLR,,0.43,WeatherDisplay:10.37,2013-09-16 04:31:00,
2013-09-15 23:36:00,46.2,40.7,29.32,ENE,68,0.0,0.0,81,0.00,CLR,,0.43,WeatherDisplay:10.37,2013-09-16 04:36:00,
2013-09-15 23:41:00,46.0,40.5,29.32,ENE,68,0.0,0.0,81,0.00,CLR,,0.43,WeatherDisplay:10.37,2013-09-16 04:41:00,
2013-09-15 23:46:00,45.7,40.2,29.32,ENE,68,0.0,0.0,81,0.00,CLR,,0.43,WeatherDisplay:10.37,2013-09-16 04:46:00,
2013-09-15 23:51:00,45.5,40.3,29.32,ENE,68,0.0,0.0,82,0.00,CLR,,0.43,WeatherDisplay:10.37,2013-09-16 04:51:00,
2013-09-15 23:56:00,45.1,40.0,29.32,ENE,68,0.0,0.0,82,0.00,CLR,,0.43,WeatherDisplay:10.37,2013-09-16 04:56:00,